Portada
METAR-TAF:

METAR-TAF

Aeropuertos :

Mécheria, Argelia

latitud: 34-56N, longitud: 000-26W, altitud: 1149 m

Observación

El informe se hizo hace 59 minutos, a las 15:00 UTC
Viento 12 kt del este-sureste
Temperatura 14°C
Humedad 15%
Presión 1026 hPa
Visibilidad 10 km o más
sin nubes por debajo de 1500 m y sin presencia de cumulonimbus.

METAR: DAAY 161500Z 12012KT CAVOK 14/M12 Q1026

Hora: 16:59 (15:59 UTC)

Pronóstico

El informe se hizo hace 1 hora y 59 minutos, a las 14:00 UTC
Pronóstico válido del 16 a las 15 UTC al 16 a las 24 UTC
Viento 12 kt del sureste
Visibilidad 10 km o más
sin nubes por debajo de 1500 m y sin presencia de cumulonimbus.

TAF: DAAY 161400Z 1615/1624 14012KT CAVOK

Observaciones y pronósticos meteorológicos de más de 4000 aeropuertos (mensajes METAR y TAF).

Los puntos amarillos y rojos representan las estaciones disponibles.

Ponga el ratón en el punto deseado para ver el nombre de la estación.

Haga clic para ver las observaciones y los pronósticos meteorológicos.

Para cambiar el mapa : haga clic en los botones verdes con una cruz de color negro para hacer un zoom, en el botón verde con un guión para alejar o en las flechas verdes para mapas adyacentes.


METAR-TAF: